Saint Bonnet de Bellac- Haute Vienne - France
Donnes mto: mercredi, 08/02/2012
Date Horaire Temp. E. Hum. E. P.atmo. Pluie Vent Direction Direction Ensoleilleme Solaire P. de rose Temp au vent Rafales
08/02/2012 00:00 -11,4 C 75 % 1028,4 hPa 0,0 mm 0,4 km/h (0 Bft) NO 315 0 min 0 W/m -14,9 C -11,4 C 4,0 km/h (1 Bft)
08/02/2012 00:10 -11,7 C 75 % 1028,4 hPa 0,0 mm 0,0 km/h (0 Bft) NO 315 0 min 0 W/m -15,2 C -11,7 C 3,6 km/h (1 Bft)
08/02/2012 00:20 -11,7 C 75 % 1028,4 hPa 0,0 mm 1,8 km/h (1 Bft) N-NE 22 0 min 0 W/m -15,2 C -11,7 C 4,3 km/h (1 Bft)
08/02/2012 00:30 -11,7 C 77 % 1028,5 hPa 0,0 mm 3,6 km/h (1 Bft) N-NE 22 0 min 0 W/m -14,9 C -11,7 C 4,3 km/h (1 Bft)
08/02/2012 00:40 -11,6 C 77 % 1028,4 hPa 0,0 mm 6,8 km/h (2 Bft) O-NO 292 0 min 0 W/m -14,8 C -15,8 C 6,8 km/h (2 Bft)
08/02/2012 00:50 -11,5 C 77 % 1028,3 hPa 0,0 mm 7,6 km/h (2 Bft) N-NE 22 0 min 0 W/m -14,7 C -16,1 C 10,4 km/h (2 Bft)
08/02/2012 01:00 -11,5 C 77 % 1028,3 hPa 0,0 mm 7,6 km/h (2 Bft) NO 315 0 min 0 W/m -14,7 C -16,1 C 11,9 km/h (2 Bft)
08/02/2012 01:10 -11,5 C 77 % 1028,2 hPa 0,0 mm 5,0 km/h (1 Bft) N-NE 22 0 min 0 W/m -14,7 C -14,6 C 5,0 km/h (1 Bft)
08/02/2012 01:20 -11,6 C 76 % 1028,3 hPa 0,0 mm 2,9 km/h (1 Bft) N-NE 22 0 min 0 W/m -15,0 C -11,6 C 6,1 km/h (2 Bft)
08/02/2012 01:30 -11,7 C 76 % 1028,3 hPa 0,0 mm 7,9 km/h (2 Bft) N 360 0 min 0 W/m -15,1 C -16,4 C 10,1 km/h (2 Bft)
08/02/2012 01:40 -11,7 C 76 % 1028,3 hPa 0,0 mm 8,6 km/h (2 Bft) N-NE 22 0 min 0 W/m -15,1 C -16,7 C 14,0 km/h (3 Bft)
08/02/2012 01:50 -11,7 C 76 % 1028,2 hPa 0,0 mm 5,0 km/h (1 Bft) N 360 0 min 0 W/m -15,1 C -14,9 C 14,8 km/h (3 Bft)
08/02/2012 02:02 -11,8 C 76 % 1028,2 hPa 0,0 mm 6,1 km/h (2 Bft) N 360 0 min 0 W/m -15,2 C -15,6 C 6,1 km/h (2 Bft)
08/02/2012 02:10 -11,8 C 76 % 1028,3 hPa 0,0 mm 6,1 km/h (2 Bft) N 360 0 min 0 W/m -15,2 C -15,6 C 14,8 km/h (3 Bft)
08/02/2012 02:20 -11,8 C 76 % 1028,3 hPa 0,0 mm 4,7 km/h (1 Bft) N-NE 22 0 min 0 W/m -15,2 C -14,8 C 7,9 km/h (2 Bft)
08/02/2012 02:30 -11,7 C 76 % 1028,3 hPa 0,0 mm 6,1 km/h (2 Bft) N-NE 22 0 min 0 W/m -15,1 C -15,5 C 6,1 km/h (2 Bft)
08/02/2012 02:40 -11,4 C 75 % 1028,2 hPa 0,0 mm 6,5 km/h (2 Bft) N-NE 22 0 min 0 W/m -14,9 C -15,4 C 10,1 km/h (2 Bft)
08/02/2012 02:50 -11,2 C 75 % 1028,1 hPa 0,0 mm 4,7 km/h (1 Bft) NE 45 0 min 0 W/m -14,7 C -14,1 C 7,2 km/h (2 Bft)
08/02/2012 03:00 -11,2 C 76 % 1028,1 hPa 0,0 mm 6,1 km/h (2 Bft) N 360 0 min 0 W/m -14,6 C -15,0 C 11,9 km/h (2 Bft)
08/02/2012 03:10 -11,1 C 75 % 1028,2 hPa 0,0 mm 9,4 km/h (2 Bft) E-NE 67 0 min 0 W/m -14,6 C -16,4 C 9,4 km/h (2 Bft)
08/02/2012 03:20 -10,9 C 75 % 1028,1 hPa 0,0 mm 10,4 km/h (2 Bft) N 360 0 min 0 W/m -14,4 C -16,5 C 17,3 km/h (3 Bft)
08/02/2012 03:30 -10,8 C 75 % 1028,2 hPa 0,0 mm 7,9 km/h (2 Bft) NE 45 0 min 0 W/m -14,3 C -15,4 C 8,6 km/h (2 Bft)
08/02/2012 03:40 -10,6 C 75 % 1028,1 hPa 0,0 mm 10,1 km/h (2 Bft) N 360 0 min 0 W/m -14,1 C -16,0 C 10,1 km/h (2 Bft)
08/02/2012 03:50 -10,5 C 75 % 1028,0 hPa 0,0 mm 7,9 km/h (2 Bft) N-NE 22 0 min 0 W/m -14,1 C -15,0 C 11,9 km/h (2 Bft)
08/02/2012 04:00 -10,4 C 75 % 1027,9 hPa 0,0 mm 4,7 km/h (1 Bft) N 360 0 min 0 W/m -14,0 C -13,2 C 8,3 km/h (2 Bft)
08/02/2012 04:10 -10,2 C 75 % 1028,0 hPa 0,0 mm 5,0 km/h (1 Bft) NO 315 0 min 0 W/m -13,8 C -13,2 C 11,2 km/h (2 Bft)
08/02/2012 04:20 -10,1 C 75 % 1028,0 hPa 0,0 mm 6,1 km/h (2 Bft) N 360 0 min 0 W/m -13,7 C -13,7 C 12,2 km/h (2 Bft)
08/02/2012 04:30 -9,9 C 76 % 1028,0 hPa 0,0 mm 5,0 km/h (1 Bft) N-NO 337 0 min 0 W/m -13,3 C -12,8 C 5,0 km/h (1 Bft)
08/02/2012 04:40 -9,8 C 76 % 1027,9 hPa 0,0 mm 13,0 km/h (3 Bft) N 360 0 min 0 W/m -13,2 C -16,0 C 15,8 km/h (3 Bft)
08/02/2012 04:50 -9,7 C 76 % 1027,9 hPa 0,0 mm 8,3 km/h (2 Bft) N-NE 22 0 min 0 W/m -13,1 C -14,3 C 10,8 km/h (2 Bft)
08/02/2012 05:00 -9,6 C 77 % 1027,9 hPa 0,0 mm 5,0 km/h (1 Bft) N-NE 22 0 min 0 W/m -12,9 C -12,5 C 14,8 km/h (3 Bft)
08/02/2012 05:10 -9,5 C 78 % 1027,8 hPa 0,0 mm 9,7 km/h (2 Bft) N 360 0 min 0 W/m -12,6 C -14,6 C 16,6 km/h (3 Bft)
08/02/2012 05:20 -9,5 C 78 % 1027,9 hPa 0,0 mm 5,4 km/h (2 Bft) N 360 0 min 0 W/m -12,6 C -12,6 C 9,7 km/h (2 Bft)
08/02/2012 05:30 -9,5 C 79 % 1027,9 hPa 0,0 mm 12,2 km/h (2 Bft) N 360 0 min 0 W/m -12,4 C -15,4 C 16,6 km/h (3 Bft)
08/02/2012 05:40 -9,4 C 79 % 1028,0 hPa 0,0 mm 8,3 km/h (2 Bft) N 360 0 min 0 W/m -12,3 C -13,9 C 10,1 km/h (2 Bft)
08/02/2012 05:50 -9,4 C 80 % 1028,0 hPa 0,0 mm 10,8 km/h (2 Bft) N-NE 22 0 min 0 W/m -12,2 C -14,8 C 14,4 km/h (3 Bft)
08/02/2012 06:00 -9,4 C 80 % 1028,0 hPa 0,0 mm 6,8 km/h (2 Bft) N 360 0 min 0 W/m -12,2 C -13,2 C 10,4 km/h (2 Bft)
08/02/2012 06:10 -9,2 C 81 % 1028,0 hPa 0,0 mm 9,0 km/h (2 Bft) N 360 0 min 0 W/m -11,8 C -13,9 C 11,5 km/h (2 Bft)
08/02/2012 06:20 -9,2 C 81 % 1028,0 hPa 0,0 mm 8,6 km/h (2 Bft) N 360 0 min 0 W/m -11,8 C -13,8 C 16,2 km/h (3 Bft)
08/02/2012 06:30 -9,2 C 82 % 1027,9 hPa 0,0 mm 7,6 km/h (2 Bft) SE 135 0 min 0 W/m -11,7 C -13,4 C 8,6 km/h (2 Bft)
08/02/2012 06:40 -9,1 C 82 % 1028,0 hPa 0,0 mm 7,2 km/h (2 Bft) N 360 0 min 0 W/m -11,6 C -13,1 C 9,0 km/h (2 Bft)
08/02/2012 06:50 -9,1 C 83 % 1027,9 hPa 0,0 mm 8,3 km/h (2 Bft) N-NE 22 0 min 0 W/m -11,4 C -13,5 C 11,2 km/h (2 Bft)
08/02/2012 07:00 -9,1 C 83 % 1027,8 hPa 0,0 mm 10,1 km/h (2 Bft) N-NE 22 0 min 0 W/m -11,4 C -14,2 C 10,8 km/h (2 Bft)
08/02/2012 07:10 -8,9 C 83 % 1027,9 hPa 0,0 mm 7,2 km/h (2 Bft) N-NE 22 0 min 0 W/m -11,2 C -12,8 C 15,1 km/h (3 Bft)
08/02/2012 07:20 -8,9 C 84 % 1027,8 hPa 0,0 mm 7,6 km/h (2 Bft) N-NE 22 0 min 0 W/m -11,1 C -13,0 C 9,4 km/h (2 Bft)
08/02/2012 07:30 -8,9 C 84 % 1027,9 hPa 0,0 mm 7,6 km/h (2 Bft) N 360 0 min 0 W/m -11,1 C -13,0 C 7,6 km/h (2 Bft)
08/02/2012 07:40 -8,9 C 84 % 1027,9 hPa 0,0 mm 6,8 km/h (2 Bft) NE 45 0 min 0 W/m -11,1 C -12,7 C 7,9 km/h (2 Bft)
08/02/2012 07:50 -8,9 C 84 % 1027,8 hPa 0,0 mm 5,8 km/h (2 Bft) N 360 0 min 0 W/m -11,1 C -12,1 C 10,4 km/h (2 Bft)
08/02/2012 08:00 -8,9 C 84 % 1028,0 hPa 0,0 mm 8,3 km/h (2 Bft) N 360 0 min 0 W/m -11,1 C -13,3 C 11,5 km/h (2 Bft)
08/02/2012 08:10 -8,8 C 84 % 1028,1 hPa 0,0 mm 6,1 km/h (2 Bft) NE 45 0 min 0 W/m -11,0 C -12,2 C 10,8 km/h (2 Bft)
08/02/2012 08:20 -8,8 C 85 % 1028,1 hPa 0,0 mm 5,4 km/h (2 Bft) N 360 0 min 0 W/m -10,9 C -11,8 C 7,6 km/h (2 Bft)
08/02/2012 08:30 -8,7 C 85 % 1028,2 hPa 0,0 mm 4,3 km/h (1 Bft) N 360 2 min 0 W/m -10,8 C -8,7 C 8,3 km/h (2 Bft)
08/02/2012 08:40 -8,6 C 85 % 1028,2 hPa 0,0 mm 7,6 km/h (2 Bft) N-NO 337 2 min 0 W/m -10,7 C -12,7 C 10,8 km/h (2 Bft)
08/02/2012 08:50 -8,6 C 85 % 1028,2 hPa 0,0 mm 9,7 km/h (2 Bft) N 360 2 min 0 W/m -10,7 C -13,5 C 11,2 km/h (2 Bft)
08/02/2012 09:00 -8,6 C 85 % 1028,3 hPa 0,0 mm 6,1 km/h (2 Bft) N-NE 22 2 min 0 W/m -10,7 C -12,0 C 10,4 km/h (2 Bft)
08/02/2012 09:10 -8,6 C 85 % 1028,4 hPa 0,0 mm 7,6 km/h (2 Bft) N-NE 22 2 min 0 W/m -10,7 C -12,7 C 13,0 km/h (3 Bft)
08/02/2012 09:20 -8,4 C 85 % 1028,3 hPa 0,0 mm 2,9 km/h (1 Bft) NE 45 2 min 0 W/m -10,5 C -8,4 C 3,2 km/h (1 Bft)
08/02/2012 09:30 -8,2 C 86 % 1028,4 hPa 0,0 mm 7,6 km/h (2 Bft) NE 45 2 min 0 W/m -10,1 C -12,2 C 10,1 km/h (2 Bft)
08/02/2012 09:40 -7,9 C 85 % 1028,5 hPa 0,0 mm 5,8 km/h (2 Bft) N-NE 22 2 min 0 W/m -10,0 C -11,0 C 7,6 km/h (2 Bft)
08/02/2012 09:50 -7,7 C 85 % 1028,6 hPa 0,0 mm 10,8 km/h (2 Bft) N-NE 22 2 min 0 W/m -9,8 C -12,8 C 14,8 km/h (3 Bft)
08/02/2012 10:00 -7,4 C 85 % 1028,6 hPa 0,0 mm 7,9 km/h (2 Bft) NE 45 2 min 0 W/m -9,5 C -11,4 C 9,0 km/h (2 Bft)
08/02/2012 10:10 -7,2 C 85 % 1028,7 hPa 0,0 mm 6,5 km/h (2 Bft) NE 45 2 min 0 W/m -9,3 C -10,5 C 9,4 km/h (2 Bft)
08/02/2012 10:20 -7,1 C 84 % 1028,8 hPa 0,0 mm 8,3 km/h (2 Bft) N-NE 22 2 min 0 W/m -9,3 C -11,2 C 14,4 km/h (3 Bft)
08/02/2012 10:30 -6,6 C 84 % 1028,9 hPa 0,0 mm 6,1 km/h (2 Bft) N 360 2 min 0 W/m -8,8 C -9,7 C 9,4 km/h (2 Bft)
08/02/2012 10:40 -6,3 C 83 % 1029,0 hPa 0,0 mm 7,6 km/h (2 Bft) N-NE 22 2 min 0 W/m -8,7 C -10,0 C 9,7 km/h (2 Bft)
08/02/2012 10:50 -6,2 C 82 % 1029,2 hPa 0,0 mm 10,4 km/h (2 Bft) N-NE 22 2 min 0 W/m -8,8 C -10,8 C 15,1 km/h (3 Bft)
08/02/2012 11:00 -5,8 C 81 % 1029,1 hPa 0,0 mm 10,8 km/h (2 Bft) NE 45 2 min 0 W/m -8,5 C -10,5 C 17,3 km/h (3 Bft)
08/02/2012 11:10 -5,9 C 80 % 1029,2 hPa 0,0 mm 9,4 km/h (2 Bft) NE 45 2 min 0 W/m -8,8 C -10,2 C 13,3 km/h (3 Bft)
08/02/2012 11:20 -5,2 C 79 % 1029,3 hPa 0,0 mm 5,4 km/h (2 Bft) N-NE 22 2 min 0 W/m -8,3 C -7,7 C 7,2 km/h (2 Bft)
08/02/2012 11:30 -5,0 C 79 % 1029,5 hPa 0,0 mm 8,6 km/h (2 Bft) N-NE 22 2 min 0 W/m -8,1 C -8,8 C 9,4 km/h (2 Bft)
08/02/2012 11:40 -4,9 C 77 % 1029,5 hPa 0,0 mm 8,6 km/h (2 Bft) N-NE 22 2 min 0 W/m -8,3 C -8,7 C 13,3 km/h (3 Bft)
08/02/2012 11:50 -5,2 C 76 % 1029,5 hPa 0,0 mm 9,0 km/h (2 Bft) NE 45 2 min 0 W/m -8,8 C -9,2 C 10,1 km/h (2 Bft)
08/02/2012 12:00 -5,2 C 76 % 1029,5 hPa 0,0 mm 8,6 km/h (2 Bft) E-NE 67 2 min 0 W/m -8,8 C -9,1 C 13,0 km/h (3 Bft)
08/02/2012 12:10 -5,4 C 76 % 1029,6 hPa 0,0 mm 4,7 km/h (1 Bft) N-NE 22 2 min 0 W/m -8,9 C -7,5 C 10,8 km/h (2 Bft)
08/02/2012 12:20 -4,7 C 75 % 1029,6 hPa 0,0 mm 3,6 km/h (1 Bft) NE 45 2 min 0 W/m -8,4 C -4,7 C 11,5 km/h (2 Bft)
08/02/2012 12:30 -4,8 C 73 % 1029,4 hPa 0,0 mm 6,5 km/h (2 Bft) NE 45 2 min 0 W/m -8,9 C -7,8 C 9,4 km/h (2 Bft)
08/02/2012 12:40 -5,1 C 73 % 1029,3 hPa 0,0 mm 3,6 km/h (1 Bft) E-NE 67 2 min 0 W/m -9,2 C -5,1 C 4,7 km/h (1 Bft)
08/02/2012 12:50 -5,2 C 73 % 1029,1 hPa 0,0 mm 6,8 km/h (2 Bft) NE 45 2 min 0 W/m -9,3 C -8,4 C 11,9 km/h (2 Bft)
08/02/2012 13:00 -4,9 C 72 % 1029,1 hPa 0,0 mm 7,9 km/h (2 Bft) N-NE 22 2 min 0 W/m -9,1 C -8,5 C 11,2 km/h (2 Bft)
08/02/2012 13:10 -5,1 C 72 % 1028,9 hPa 0,0 mm 2,5 km/h (1 Bft) NE 45 2 min 0 W/m -9,3 C -5,1 C 6,8 km/h (2 Bft)
08/02/2012 13:20 -4,7 C 72 % 1028,9 hPa 0,0 mm 5,4 km/h (2 Bft) E-NE 67 2 min 0 W/m -9,0 C -7,1 C 9,4 km/h (2 Bft)
08/02/2012 13:30 -4,7 C 71 % 1028,9 hPa 0,0 mm 3,6 km/h (1 Bft) NE 45 2 min 0 W/m -9,1 C -4,7 C 8,3 km/h (2 Bft)
08/02/2012 13:40 -4,7 C 71 % 1029,1 hPa 0,0 mm 5,8 km/h (2 Bft) N-NE 22 2 min 0 W/m -9,1 C -7,3 C 9,7 km/h (2 Bft)
08/02/2012 13:50 -4,9 C 71 % 1029,1 hPa 0,0 mm 6,8 km/h (2 Bft) N 360 2 min 0 W/m -9,3 C -8,0 C 8,6 km/h (2 Bft)
08/02/2012 14:00 -5,1 C 72 % 1029,1 hPa 0,0 mm 6,5 km/h (2 Bft) N-NE 22 2 min 0 W/m -9,3 C -8,1 C 11,5 km/h (2 Bft)
08/02/2012 14:10 -5,2 C 73 % 1029,1 hPa 0,0 mm 9,7 km/h (2 Bft) N 360 2 min 0 W/m -9,3 C -9,4 C 12,6 km/h (3 Bft)
08/02/2012 14:20 -4,7 C 73 % 1029,2 hPa 0,0 mm 13,0 km/h (3 Bft) NE 45 2 min 0 W/m -8,8 C -9,7 C 19,4 km/h (3 Bft)
08/02/2012 14:30 -4,6 C 71 % 1029,2 hPa 0,0 mm 6,1 km/h (2 Bft) N-NE 22 2 min 0 W/m -9,0 C -7,4 C 8,3 km/h (2 Bft)
08/02/2012 14:40 -4,6 C 71 % 1029,1 hPa 0,0 mm 9,4 km/h (2 Bft) N-NE 22 2 min 0 W/m -9,0 C -8,6 C 11,9 km/h (2 Bft)
08/02/2012 14:50 -4,5 C 70 % 1029,1 hPa 0,0 mm 9,4 km/h (2 Bft) E 90 2 min 0 W/m -9,1 C -8,5 C 13,7 km/h (3 Bft)
08/02/2012 15:00 -4,4 C 70 % 1029,2 hPa 0,0 mm 11,2 km/h (2 Bft) NE 45 2 min 0 W/m -9,0 C -8,9 C 15,8 km/h (3 Bft)
08/02/2012 15:10 -4,3 C 68 % 1029,4 hPa 0,0 mm 9,4 km/h (2 Bft) N-NE 22 2 min 0 W/m -9,3 C -8,3 C 10,1 km/h (2 Bft)
08/02/2012 15:20 -4,6 C 68 % 1029,4 hPa 0,0 mm 5,4 km/h (2 Bft) NE 45 2 min 0 W/m -9,6 C -7,0 C 5,8 km/h (2 Bft)
08/02/2012 15:30 -4,7 C 68 % 1029,5 hPa 0,0 mm 7,9 km/h (2 Bft) N-NE 22 2 min 0 W/m -9,7 C -8,2 C 7,9 km/h (2 Bft)
08/02/2012 15:40 -4,9 C 68 % 1029,5 hPa 0,0 mm 7,2 km/h (2 Bft) N-NE 22 2 min 0 W/m -9,9 C -8,2 C 7,6 km/h (2 Bft)
08/02/2012 15:50 -5,1 C 67 % 1029,5 hPa 0,0 mm 8,3 km/h (2 Bft) NE 45 2 min 0 W/m -10,2 C -8,8 C 12,2 km/h (2 Bft)
08/02/2012 16:00 -5,2 C 68 % 1029,5 hPa 0,0 mm 11,9 km/h (2 Bft) NE 45 2 min 0 W/m -10,2 C -10,1 C 12,2 km/h (2 Bft)
08/02/2012 16:10 -5,2 C 67 % 1029,5 hPa 0,0 mm 7,2 km/h (2 Bft) NE 45 2 min 0 W/m -10,3 C -8,5 C 14,0 km/h (3 Bft)
08/02/2012 16:20 -5,4 C 68 % 1029,6 hPa 0,0 mm 8,3 km/h (2 Bft) NE 45 2 min 0 W/m -10,4 C -9,2 C 14,0 km/h (3 Bft)
08/02/2012 16:30 -5,5 C 69 % 1029,6 hPa 0,0 mm 3,6 km/h (1 Bft) N-NE 22 2 min 0 W/m -10,3 C -5,5 C 6,8 km/h (2 Bft)
08/02/2012 16:40 -5,4 C 69 % 1029,6 hPa 0,0 mm 5,4 km/h (2 Bft) N-NE 22 2 min 0 W/m -10,2 C -7,9 C 8,6 km/h (2 Bft)
08/02/2012 16:50 -5,6 C 70 % 1029,7 hPa 0,0 mm 3,2 km/h (1 Bft) N-NE 22 2 min 0 W/m -10,2 C -5,6 C 3,6 km/h (1 Bft)
08/02/2012 17:00 -5,7 C 70 % 1029,8 hPa 0,0 mm 3,6 km/h (1 Bft) E 90 2 min 0 W/m -10,3 C -5,7 C 6,1 km/h (2 Bft)
08/02/2012 17:10 -5,8 C 71 % 1029,8 hPa 0,0 mm 5,4 km/h (2 Bft) E-NE 67 2 min 0 W/m -10,2 C -8,4 C 8,3 km/h (2 Bft)
08/02/2012 17:20 -5,9 C 71 % 1029,7 hPa 0,0 mm 6,8 km/h (2 Bft) E-NE 67 2 min 0 W/m -10,3 C -9,2 C 7,2 km/h (2 Bft)
08/02/2012 17:30 -6,1 C 71 % 1029,8 hPa 0,0 mm 3,2 km/h (1 Bft) NE 45 2 min 0 W/m -10,5 C -6,1 C 7,6 km/h (2 Bft)
08/02/2012 17:40 -6,2 C 72 % 1029,9 hPa 0,0 mm 5,8 km/h (2 Bft) NE 45 2 min 0 W/m -10,4 C -9,1 C 7,9 km/h (2 Bft)
08/02/2012 17:50 -6,3 C 72 % 1030,0 hPa 0,0 mm 9,0 km/h (2 Bft) NE 45 2 min 0 W/m -10,5 C -10,5 C 9,0 km/h (2 Bft)
08/02/2012 18:00 -6,4 C 72 % 1030,0 hPa 0,0 mm 3,2 km/h (1 Bft) E-NE 67 2 min 0 W/m -10,6 C -6,4 C 6,8 km/h (2 Bft)
08/02/2012 18:10 -6,6 C 73 % 1030,0 hPa 0,0 mm 6,5 km/h (2 Bft) NE 45 0 min 0 W/m -10,6 C -9,9 C 12,6 km/h (3 Bft)
08/02/2012 18:20 -6,6 C 74 % 1030,1 hPa 0,0 mm 5,4 km/h (2 Bft) N-NE 22 0 min 0 W/m -10,4 C -9,3 C 7,2 km/h (2 Bft)
08/02/2012 18:30 -6,8 C 74 % 1030,2 hPa 0,0 mm 1,8 km/h (1 Bft) N-NE 22 0 min 0 W/m -10,6 C -6,8 C 3,2 km/h (1 Bft)
08/02/2012 18:40 -7,1 C 74 % 1030,2 hPa 0,0 mm 7,2 km/h (2 Bft) NE 45 0 min 0 W/m -10,9 C -10,7 C 10,4 km/h (2 Bft)
08/02/2012 18:50 -7,2 C 75 % 1030,4 hPa 0,0 mm 5,0 km/h (1 Bft) N-NE 22 0 min 0 W/m -10,9 C -9,8 C 12,6 km/h (3 Bft)
08/02/2012 19:00 -7,4 C 74 % 1030,3 hPa 0,0 mm 3,2 km/h (1 Bft) N-NE 22 0 min 0 W/m -11,2 C -7,4 C 4,0 km/h (1 Bft)
08/02/2012 19:10 -7,6 C 75 % 1030,4 hPa 0,0 mm 4,3 km/h (1 Bft) NE 45 0 min 0 W/m -11,2 C -7,6 C 8,3 km/h (2 Bft)
08/02/2012 19:20 -7,8 C 75 % 1030,4 hPa 0,0 mm 2,9 km/h (1 Bft) NE 45 0 min 0 W/m -11,4 C -7,8 C 4,0 km/h (1 Bft)
08/02/2012 19:30 -8,0 C 76 % 1030,4 hPa 0,0 mm 6,1 km/h (2 Bft) N-NE 22 0 min 0 W/m -11,5 C -11,3 C 11,9 km/h (2 Bft)
08/02/2012 19:40 -8,2 C 76 % 1030,5 hPa 0,0 mm 3,6 km/h (1 Bft) N 360 0 min 0 W/m -11,7 C -8,2 C 4,7 km/h (1 Bft)
08/02/2012 19:50 -8,3 C 77 % 1030,5 hPa 0,0 mm 3,6 km/h (1 Bft) N-NE 22 0 min 0 W/m -11,6 C -8,3 C 7,9 km/h (2 Bft)
08/02/2012 20:00 -8,5 C 77 % 1030,6 hPa 0,0 mm 4,7 km/h (1 Bft) N 360 0 min 0 W/m -11,8 C -11,0 C 8,3 km/h (2 Bft)
08/02/2012 20:10 -8,6 C 77 % 1030,6 hPa 0,0 mm 5,0 km/h (1 Bft) N-NE 22 0 min 0 W/m -11,9 C -11,3 C 8,3 km/h (2 Bft)
08/02/2012 20:20 -8,6 C 78 % 1030,7 hPa 0,0 mm 4,7 km/h (1 Bft) NE 45 0 min 0 W/m -11,7 C -11,2 C 4,7 km/h (1 Bft)
08/02/2012 20:30 -8,8 C 78 % 1030,8 hPa 0,0 mm 3,6 km/h (1 Bft) N-NE 22 0 min 0 W/m -11,9 C -8,8 C 6,5 km/h (2 Bft)
08/02/2012 20:40 -8,9 C 78 % 1030,7 hPa 0,0 mm 5,0 km/h (1 Bft) N-NE 22 0 min 0 W/m -12,0 C -11,7 C 7,9 km/h (2 Bft)
08/02/2012 20:50 -9,1 C 79 % 1030,8 hPa 0,0 mm 3,2 km/h (1 Bft) NE 45 0 min 0 W/m -12,1 C -9,1 C 8,3 km/h (2 Bft)
08/02/2012 21:00 -9,1 C 79 % 1030,8 hPa 0,0 mm 4,3 km/h (1 Bft) N-NE 22 0 min 0 W/m -12,1 C -9,1 C 6,8 km/h (2 Bft)
08/02/2012 21:10 -9,2 C 79 % 1030,8 hPa 0,0 mm 4,0 km/h (1 Bft) N-NE 22 0 min 0 W/m -12,2 C -9,2 C 6,5 km/h (2 Bft)
08/02/2012 21:20 -9,2 C 79 % 1030,8 hPa 0,0 mm 3,6 km/h (1 Bft) NE 45 0 min 0 W/m -12,2 C -9,2 C 3,6 km/h (1 Bft)
08/02/2012 21:30 -9,2 C 80 % 1030,8 hPa 0,0 mm 3,2 km/h (1 Bft) N-NE 22 0 min 0 W/m -12,0 C -9,2 C 7,2 km/h (2 Bft)
08/02/2012 21:40 -9,3 C 80 % 1030,9 hPa 0,0 mm 4,0 km/h (1 Bft) N-NE 22 0 min 0 W/m -12,1 C -9,3 C 4,0 km/h (1 Bft)
08/02/2012 21:50 -9,4 C 80 % 1030,9 hPa 0,0 mm 1,4 km/h (1 Bft) NE 45 0 min 0 W/m -12,2 C -9,4 C 4,0 km/h (1 Bft)
08/02/2012 22:00 -9,5 C 80 % 1031,0 hPa 0,0 mm 2,9 km/h (1 Bft) N-NE 22 0 min 0 W/m -12,3 C -9,5 C 4,0 km/h (1 Bft)
08/02/2012 22:10 -9,6 C 81 % 1031,1 hPa 0,0 mm 2,5 km/h (1 Bft) N-NE 22 0 min 0 W/m -12,2 C -9,6 C 3,6 km/h (1 Bft)
08/02/2012 22:20 -9,7 C 81 % 1031,2 hPa 0,0 mm 1,8 km/h (1 Bft) N-NE 22 0 min 0 W/m -12,3 C -9,7 C 3,2 km/h (1 Bft)
08/02/2012 22:30 -9,8 C 81 % 1031,1 hPa 0,0 mm 2,2 km/h (1 Bft) NE 45 0 min 0 W/m -12,4 C -9,8 C 2,9 km/h (1 Bft)
08/02/2012 22:40 -9,9 C 81 % 1031,2 hPa 0,0 mm 1,1 km/h (1 Bft) N-NE 22 0 min 0 W/m -12,5 C -9,9 C 4,7 km/h (1 Bft)
08/02/2012 22:50 -10,0 C 81 % 1031,3 hPa 0,0 mm 2,2 km/h (1 Bft) N 360 0 min 0 W/m -12,6 C -10,0 C 6,1 km/h (2 Bft)
08/02/2012 23:00 -10,2 C 81 % 1031,3 hPa 0,0 mm 3,6 km/h (1 Bft) N-NE 22 0 min 0 W/m -12,8 C -10,2 C 6,1 km/h (2 Bft)
08/02/2012 23:10 -10,2 C 81 % 1031,3 hPa 0,0 mm 3,6 km/h (1 Bft) NE 45 0 min 0 W/m -12,8 C -10,2 C 4,0 km/h (1 Bft)
08/02/2012 23:20 -10,3 C 82 % 1031,4 hPa 0,0 mm 0,0 km/h (0 Bft) N-NE 22 0 min 0 W/m -12,8 C -10,3 C 0,0 km/h (0 Bft)
08/02/2012 23:30 -10,4 C 82 % 1031,5 hPa 0,0 mm 3,6 km/h (1 Bft) N 360 0 min 0 W/m -12,9 C -10,4 C 6,5 km/h (2 Bft)
08/02/2012 23:40 -10,6 C 82 % 1031,5 hPa 0,0 mm 3,2 km/h (1 Bft) NE 45 0 min 0 W/m -13,1 C -10,6 C 7,2 km/h (2 Bft)
08/02/2012 23:50 -10,6 C 82 % 1031,5 hPa 0,0 mm 0,4 km/h (0 Bft) NE 45 0 min 0 W/m -13,1 C -10,6 C 3,6 km/h (1 Bft)
_ Min-Heure 02:20 16:10 07:50 - 23:20 - - - - 00:20 01:40 23:20
Minimum _ -11,8 C 67 % 1027,8 hPa - 0,0 km/h (0 Bft) - - - - -15,2 C -16,7 C 0,0 km/h (0 Bft)
_ Max-Heure 15:10 09:30 23:50 23:50 14:20 - - 18:00 23:50 11:30 13:30 14:20
Maximum _ -4,3 C 86 % 1031,5 hPa 0,0 mm 13,0 km/h
NE (3 Bft)
- - 2 min 0 W/m -8,1 C -4,7 C 19,4 km/h
NE (3 Bft)
Moyenne _ -8,1 C 77 % 1029,2 hPa #0,0 mm 6,1 km/h (2 Bft) N-NE - #1:56 h 0 W/m -11,5 C -10,8 C 9,2 km/h (2 Bft)
Saint Bonnet de Bellac- Haute Vienne - France